Time;durP1;ratioP1;P1;durP2;ratioP2;P2;SDS_P1;SDS_P2;PMS_P1;PMS_P2;Temp;Humidity;BMP_temperature;BMP_pressure;BME280_temperature;BME280_humidity;BME280_pressure;Samples;Min_cycle;Max_cycle;Signal;HPM_P1;HPM_P2
2023/09/12 00:01:32;;;;;;;19.85;14.18;;;18.90;70.90;;;;;;5077264;28;20052;-67
2023/09/12 00:04:03;;;;;;;17.25;13.48;;;18.90;70.90;;;;;;5077167;28;20029;-66
2023/09/12 00:06:29;;;;;;;19.52;13.73;;;18.90;71.00;;;;;;5077349;28;20051;-66
2023/09/12 00:08:57;;;;;;;18.80;14.90;;;18.90;71.10;;;;;;5076617;28;20040;-66
2023/09/12 00:11:25;;;;;;;17.02;13.27;;;18.80;71.30;;;;;;5076116;28;20040;-66
2023/09/12 00:13:52;;;;;;;19.30;13.02;;;18.80;71.50;;;;;;5077016;28;20028;-67
2023/09/12 00:16:28;;;;;;;14.68;12.57;;;18.70;71.70;;;;;;5077202;28;20024;-66
2023/09/12 00:18:53;;;;;;;21.00;14.25;;;18.70;71.80;;;;;;5076694;28;20020;-66
2023/09/12 00:21:19;;;;;;;18.55;13.93;;;18.70;71.80;;;;;;5076832;28;20054;-66
2023/09/12 00:23:46;;;;;;;19.52;14.20;;;18.70;71.80;;;;;;5076549;28;20062;-66
2023/09/12 00:26:14;;;;;;;19.20;15.02;;;18.70;72.20;;;;;;5076920;28;20024;-67
2023/09/12 00:28:43;;;;;;;18.65;14.57;;;18.70;72.30;;;;;;5076326;28;20355;-66
2023/09/12 00:31:15;;;;;;;19.00;14.13;;;18.70;72.40;;;;;;5076384;28;20043;-67
2023/09/12 00:33:44;;;;;;;17.70;13.20;;;18.60;72.30;;;;;;5076883;28;20020;-66
2023/09/12 00:36:11;;;;;;;17.55;13.48;;;18.70;72.20;;;;;;5076296;28;20028;-66
2023/09/12 00:38:37;;;;;;;17.30;12.57;;;18.70;72.00;;;;;;5076385;28;20052;-67
2023/09/12 00:41:03;;;;;;;14.60;11.57;;;18.70;72.20;;;;;;5076198;28;20036;-67
2023/09/12 00:43:29;;;;;;;17.60;13.32;;;18.70;72.00;;;;;;5076161;28;20025;-67
2023/09/12 00:46:01;;;;;;;18.92;15.52;;;18.70;71.90;;;;;;5076296;28;20107;-67
2023/09/12 00:48:27;;;;;;;17.52;13.75;;;18.70;71.90;;;;;;5076179;28;20051;-67
2023/09/12 00:50:54;;;;;;;20.33;14.20;;;18.70;71.80;;;;;;5076257;28;20430;-66
2023/09/12 00:53:21;;;;;;;19.80;14.90;;;18.70;71.70;;;;;;5076204;28;20055;-66
2023/09/12 00:55:54;;;;;;;17.35;13.63;;;18.60;71.80;;;;;;5076121;28;20039;-66
2023/09/12 00:58:20;;;;;;;16.27;12.73;;;18.60;72.00;;;;;;5058290;28;20086;-66
2023/09/12 01:00:58;;;;;;;14.88;11.57;;;18.60;72.20;;;;;;5076319;28;20056;-68
2023/09/12 01:03:25;;;;;;;16.42;12.43;;;18.60;72.20;;;;;;5075681;28;20043;-66
2023/09/12 01:05:54;;;;;;;17.92;13.35;;;18.60;72.30;;;;;;5076158;28;20060;-67
2023/09/12 01:08:24;;;;;;;15.05;11.30;;;18.60;72.40;;;;;;5075439;28;20442;-67
2023/09/12 01:10:57;;;;;;;14.95;11.05;;;18.60;72.40;;;;;;5076247;28;20067;-66
2023/09/12 01:13:24;;;;;;;15.35;11.60;;;18.60;72.20;;;;;;5076165;28;20020;-67
2023/09/12 01:15:57;;;;;;;18.60;13.15;;;18.60;72.20;;;;;;5076088;28;20051;-66
2023/09/12 01:18:24;;;;;;;18.25;12.00;;;18.60;72.30;;;;;;5075983;28;20024;-67
2023/09/12 01:21:23;;;;;;;15.10;12.13;;;18.60;72.00;;;;;;5075654;28;20036;-67
2023/09/12 01:24:14;;;;;;;14.23;11.48;;;18.60;72.50;;;;;;5075947;28;20033;-67
2023/09/12 01:26:59;;;;;;;16.33;11.85;;;18.60;72.60;;;;;;5075345;28;20427;-67
2023/09/12 01:29:26;;;;;;;14.05;11.02;;;18.60;72.00;;;;;;5075912;28;20422;-66
2023/09/12 01:31:55;;;;;;;14.68;11.02;;;18.50;72.20;;;;;;5075409;28;20096;-66
2023/09/12 01:34:24;;;;;;;14.40;10.98;;;18.50;72.40;;;;;;5075377;28;20020;-66
2023/09/12 01:36:52;;;;;;;16.55;11.20;;;18.50;72.40;;;;;;5075331;28;20035;-67
2023/09/12 01:39:18;;;;;;;15.30;11.32;;;18.50;72.30;;;;;;5075332;28;20024;-67
2023/09/12 01:41:47;;;;;;;17.65;11.38;;;18.50;72.50;;;;;;5075254;28;20328;-66
2023/09/12 01:44:15;;;;;;;17.40;11.07;;;18.50;72.60;;;;;;5075258;28;20458;-66
2023/09/12 01:46:43;;;;;;;13.43;10.70;;;18.50;72.60;;;;;;5075693;28;20119;-67
2023/09/12 01:49:10;;;;;;;13.60;10.25;;;18.50;72.50;;;;;;5075180;28;20025;-66
2023/09/12 01:51:36;;;;;;;14.60;11.07;;;18.50;72.40;;;;;;5075176;28;20020;-67
2023/09/12 01:54:04;;;;;;;14.85;11.60;;;18.50;72.60;;;;;;5075378;28;20029;-66
2023/09/12 01:56:31;;;;;;;17.50;12.77;;;18.50;72.40;;;;;;5075356;28;20495;-66
2023/09/12 01:58:57;;;;;;;14.82;11.15;;;18.50;72.40;;;;;;5074988;28;20123;-66
2023/09/12 02:01:31;;;;;;;13.45;10.23;;;18.40;72.60;;;;;;5075541;28;20039;-68
2023/09/12 02:03:58;;;;;;;13.98;9.57;;;18.50;72.50;;;;;;5075056;28;20024;-66
2023/09/12 02:06:29;;;;;;;15.85;11.10;;;18.40;72.60;;;;;;5075457;28;20052;-66
2023/09/12 02:08:55;;;;;;;15.13;11.13;;;18.50;72.60;;;;;;5074735;28;20072;-67
2023/09/12 02:11:21;;;;;;;14.60;10.88;;;18.50;72.70;;;;;;5074955;28;20051;-67
2023/09/12 02:13:53;;;;;;;17.42;13.60;;;18.40;72.70;;;;;;5074900;28;20029;-67
2023/09/12 02:16:22;;;;;;;15.98;12.05;;;18.40;72.70;;;;;;5074892;28;20457;-66
2023/09/12 02:18:55;;;;;;;20.77;13.65;;;18.40;72.70;;;;;;5075247;28;20116;-66
2023/09/12 02:21:21;;;;;;;15.52;11.60;;;18.40;72.70;;;;;;5074874;28;20044;-67
2023/09/12 02:23:47;;;;;;;15.55;11.60;;;18.40;72.70;;;;;;5075088;28;20056;-67
2023/09/12 02:26:13;;;;;;;14.57;11.38;;;18.40;72.70;;;;;;5075235;28;20071;-66
2023/09/12 02:28:38;;;;;;;16.13;12.43;;;18.30;72.70;;;;;;5074740;28;20029;-66
2023/09/12 02:31:11;;;;;;;15.52;11.95;;;18.30;72.70;;;;;;5075030;28;20017;-67
2023/09/12 02:33:38;;;;;;;16.30;11.70;;;18.30;72.60;;;;;;5077183;28;20066;-66
2023/09/12 02:36:07;;;;;;;22.45;12.82;;;18.20;72.70;;;;;;5061231;28;20028;-66
2023/09/12 02:38:33;;;;;;;15.90;12.02;;;18.20;72.60;;;;;;5078469;28;20076;-67
2023/09/12 02:40:59;;;;;;;16.17;12.43;;;18.20;72.80;;;;;;5078522;28;20056;-67
2023/09/12 02:43:24;;;;;;;16.40;12.93;;;18.20;72.80;;;;;;5078748;28;20059;-66
2023/09/12 02:45:50;;;;;;;14.75;11.98;;;18.20;72.90;;;;;;5078860;28;20458;-67
2023/09/12 02:48:19;;;;;;;16.05;12.15;;;18.20;73.20;;;;;;5078583;28;20017;-66
2023/09/12 02:50:45;;;;;;;17.98;13.05;;;18.20;73.30;;;;;;5078311;28;20113;-67
2023/09/12 02:53:11;;;;;;;20.80;13.32;;;18.10;73.20;;;;;;5078186;28;20024;-68
2023/09/12 02:55:42;;;;;;;18.65;12.77;;;18.10;73.10;;;;;;5078502;28;20031;-67
2023/09/12 02:58:10;;;;;;;17.75;12.68;;;18.10;72.80;;;;;;5078159;28;20102;-66
2023/09/12 03:00:43;;;;;;;16.58;12.40;;;18.10;72.90;;;;;;5078147;28;20063;-67
2023/09/12 03:03:09;;;;;;;17.75;14.15;;;18.00;73.00;;;;;;5078692;28;20025;-67
2023/09/12 03:05:37;;;;;;;16.33;12.75;;;18.10;73.10;;;;;;5078253;28;20036;-66
2023/09/12 03:08:03;;;;;;;18.38;13.23;;;18.00;73.10;;;;;;5077717;28;20029;-67
2023/09/12 03:10:29;;;;;;;17.75;14.55;;;18.00;73.00;;;;;;5078188;28;20346;-68
2023/09/12 03:12:55;;;;;;;16.60;12.02;;;18.00;73.10;;;;;;5078478;28;20016;-66
2023/09/12 03:15:21;;;;;;;17.50;12.25;;;17.90;73.30;;;;;;5077882;28;20020;-66
2023/09/12 03:17:48;;;;;;;17.73;13.25;;;17.90;73.50;;;;;;5077989;28;20024;-67
2023/09/12 03:20:14;;;;;;;14.38;11.32;;;17.80;73.70;;;;;;5077806;28;20025;-66
2023/09/12 03:22:40;;;;;;;18.00;13.07;;;17.80;73.90;;;;;;5077828;28;20027;-67
2023/09/12 03:25:14;;;;;;;14.70;11.20;;;17.80;74.10;;;;;;5078271;28;20066;-66
2023/09/12 03:27:41;;;;;;;;;;;17.80;74.20;;;;;;5078049;28;20029;-67
2023/09/12 03:30:12;;;;;;;17.40;11.27;;;17.80;75.30;;;;;;5077684;28;19904;-66
2023/09/12 03:32:39;;;;;;;14.95;11.00;;;17.80;74.00;;;;;;5077781;28;20115;-66
2023/09/12 03:35:05;;;;;;;16.88;12.15;;;17.70;74.00;;;;;;5077578;28;20407;-65
2023/09/12 03:37:32;;;;;;;17.10;12.02;;;17.80;74.10;;;;;;5077680;28;20044;-67
2023/09/12 03:39:58;;;;;;;21.38;12.90;;;17.80;74.30;;;;;;5077709;28;20115;-66
2023/09/12 03:42:33;;;;;;;16.98;13.27;;;17.70;74.40;;;;;;5077917;28;20035;-67
2023/09/12 03:45:00;;;;;;;15.85;10.93;;;17.70;74.40;;;;;;5076253;28;20056;-66
2023/09/12 03:47:30;;;;;;;15.23;11.48;;;17.70;74.10;;;;;;5077643;28;20032;-67
2023/09/12 03:50:02;;;;;;;15.73;11.77;;;17.70;74.40;;;;;;5077314;28;20068;-67
2023/09/12 03:52:30;;;;;;;17.35;11.65;;;17.60;74.50;;;;;;5077389;28;20032;-66
2023/09/12 03:55:03;;;;;;;14.88;11.60;;;17.60;74.40;;;;;;5077136;28;20044;-66
2023/09/12 03:57:29;;;;;;;15.88;10.95;;;17.70;74.40;;;;;;5077030;28;20028;-65
2023/09/12 03:59:56;;;;;;;14.05;11.02;;;17.60;74.30;;;;;;5077066;28;20047;-66
2023/09/12 04:02:26;;;;;;;16.08;13.27;;;17.60;74.30;;;;;;5077291;28;20028;-66
2023/09/12 04:04:52;;;;;;;15.30;11.38;;;17.60;74.40;;;;;;5077483;28;20028;-66
2023/09/12 04:07:21;;;;;;;15.77;11.63;;;17.60;74.10;;;;;;5077045;28;20020;-66
2023/09/12 04:09:47;;;;;;;17.75;12.93;;;17.60;74.10;;;;;;5076271;28;20053;-66
2023/09/12 04:12:15;;;;;;;15.40;11.65;;;17.50;74.10;;;;;;5077357;28;20020;-66
2023/09/12 04:14:43;;;;;;;14.70;10.55;;;17.50;74.30;;;;;;5076807;28;20063;-66
2023/09/12 04:17:09;;;;;;;12.65;10.05;;;17.50;74.40;;;;;;5076681;28;20461;-66
2023/09/12 04:19:36;;;;;;;14.85;10.60;;;17.40;74.50;;;;;;5076969;28;20032;-66
2023/09/12 04:22:04;;;;;;;12.60;9.95;;;17.40;74.60;;;;;;5076564;28;20031;-66
2023/09/12 04:24:30;;;;;;;15.43;10.70;;;17.40;74.60;;;;;;5076515;28;20088;-66
2023/09/12 04:26:59;;;;;;;15.40;11.80;;;17.40;74.60;;;;;;5076474;28;20401;-67
2023/09/12 04:29:24;;;;;;;17.20;12.60;;;17.50;74.70;;;;;;5076965;28;20085;-68
2023/09/12 04:31:58;;;;;;;14.80;10.82;;;17.40;74.50;;;;;;5076432;28;20032;-67
2023/09/12 04:34:26;;;;;;;14.82;11.15;;;17.50;74.40;;;;;;5076359;28;20032;-67
2023/09/12 04:36:56;;;;;;;14.23;11.05;;;17.40;74.50;;;;;;5076289;28;20024;-66
2023/09/12 04:39:22;;;;;;;15.15;10.88;;;17.40;74.40;;;;;;5076218;28;20451;-66
2023/09/12 04:41:49;;;;;;;16.17;11.13;;;17.40;74.50;;;;;;5076497;28;20101;-67
2023/09/12 04:44:15;;;;;;;16.83;11.82;;;17.40;74.70;;;;;;5076103;28;20033;-67
2023/09/12 04:46:43;;;;;;;15.32;11.07;;;17.40;75.10;;;;;;5076521;28;20025;-66
2023/09/12 04:49:11;;;;;;;15.13;11.82;;;17.40;74.80;;;;;;5076099;28;20025;-67
2023/09/12 04:51:39;;;;;;;14.60;11.15;;;17.40;74.80;;;;;;5076000;28;20024;-66
2023/09/12 04:54:05;;;;;;;15.50;11.35;;;17.40;74.80;;;;;;5076041;28;20474;-67
2023/09/12 04:56:31;;;;;;;14.80;10.07;;;17.50;74.50;;;;;;5076272;28;20441;-67
2023/09/12 04:58:57;;;;;;;17.20;12.18;;;17.50;74.40;;;;;;5076129;28;20028;-67
2023/09/12 05:01:26;;;;;;;15.60;11.70;;;17.60;74.50;;;;;;5075841;28;20032;-66
2023/09/12 05:03:54;;;;;;;15.27;11.57;;;17.60;74.50;;;;;;5075935;28;20430;-68
2023/09/12 05:06:20;;;;;;;14.38;10.18;;;17.70;74.50;;;;;;5075812;28;20029;-66
2023/09/12 05:08:46;;;;;;;14.57;11.30;;;17.90;74.30;;;;;;5075419;28;20051;-67
2023/09/12 05:11:12;;;;;;;15.20;10.75;;;18.20;73.90;;;;;;5075927;28;20017;-67
2023/09/12 05:13:38;;;;;;;15.52;10.77;;;18.40;73.50;;;;;;5075654;28;20078;-67
2023/09/12 05:16:04;;;;;;;14.55;11.40;;;18.60;73.20;;;;;;5076084;28;20385;-67
2023/09/12 05:18:33;;;;;;;14.82;11.40;;;18.90;72.70;;;;;;5075711;28;20024;-67
2023/09/12 05:20:59;;;;;;;17.25;11.75;;;19.40;72.10;;;;;;5075555;28;20066;-66
2023/09/12 05:23:25;;;;;;;16.13;11.77;;;19.90;71.10;;;;;;5075486;28;20370;-67
2023/09/12 05:25:51;;;;;;;15.90;11.35;;;20.50;69.90;;;;;;5075919;28;20024;-67
2023/09/12 05:28:19;;;;;;;17.05;11.35;;;21.10;68.70;;;;;;5075832;28;20335;-66
2023/09/12 05:30:48;;;;;;;17.40;11.77;;;21.80;67.30;;;;;;5057673;28;20455;-65
2023/09/12 05:33:17;;;;;;;19.13;11.73;;;22.40;66.00;;;;;;5075356;28;20059;-67
2023/09/12 05:35:44;;;;;;;15.27;11.40;;;23.00;64.60;;;;;;5075277;28;20462;-68
2023/09/12 05:38:11;;;;;;;15.77;11.35;;;23.70;63.20;;;;;;5075215;28;20032;-68
2023/09/12 05:40:39;;;;;;;15.18;11.25;;;24.40;61.70;;;;;;5075365;28;20024;-67
2023/09/12 05:43:05;;;;;;;15.77;11.13;;;25.00;60.30;;;;;;5075133;28;20111;-66
2023/09/12 05:45:32;;;;;;;14.40;10.52;;;25.60;59.10;;;;;;5057563;28;20151;-68
2023/09/12 05:47:59;;;;;;;12.15;10.10;;;26.10;58.10;;;;;;5075015;28;20024;-69
2023/09/12 05:50:25;;;;;;;15.35;11.50;;;26.50;57.00;;;;;;5075512;28;20454;-71
2023/09/12 05:52:51;;;;;;;15.75;11.55;;;27.00;56.00;;;;;;5057570;28;20355;-70
2023/09/12 05:55:17;;;;;;;14.65;10.40;;;27.40;55.20;;;;;;5075462;28;20027;-72
2023/09/12 05:57:44;;;;;;;14.35;10.55;;;27.90;54.40;;;;;;5057389;28;20143;-67
2023/09/12 06:00:11;;;;;;;16.20;11.70;;;28.30;53.60;;;;;;5075148;28;20024;-72
2023/09/12 06:02:42;;;;;;;15.32;11.48;;;28.60;52.80;;;;;;5075305;28;20039;-66
2023/09/12 06:05:08;;;;;;;15.77;11.60;;;28.80;52.50;;;;;;5075366;28;20020;-72
2023/09/12 06:07:35;;;;;;;17.30;13.20;;;29.10;52.20;;;;;;5075262;28;20052;-73
2023/09/12 06:10:01;;;;;;;14.98;11.70;;;29.40;51.50;;;;;;5079000;28;20102;-71
2023/09/12 06:12:28;;;;;;;16.88;12.38;;;29.60;50.80;;;;;;5079177;28;20055;-73
2023/09/12 06:14:55;;;;;;;19.35;12.00;;;30.00;50.10;;;;;;5079110;28;20025;-67
2023/09/12 06:17:22;;;;;;;15.85;11.55;;;30.40;49.70;;;;;;5078916;28;20437;-73
2023/09/12 06:19:51;;;;;;;15.57;11.02;;;30.90;48.70;;;;;;5079303;28;20064;-73
2023/09/12 06:22:17;;;;;;;15.25;11.25;;;31.30;48.00;;;;;;5079466;28;20039;-67
2023/09/12 06:24:44;;;;;;;21.65;12.63;;;31.50;47.30;;;;;;5079170;28;20024;-67
2023/09/12 06:27:18;;;;;;;20.27;13.35;;;31.90;46.60;;;;;;5078751;28;20443;-66
2023/09/12 06:29:48;;;;;;;21.15;14.07;;;32.40;45.60;;;;;;5079111;28;20032;-67
2023/09/12 06:32:15;;;;;;;26.55;15.45;;;33.00;44.60;;;;;;5079034;28;20029;-70
2023/09/12 06:34:42;;;;;;;25.45;15.18;;;33.70;43.60;;;;;;5078695;28;20490;-67
2023/09/12 06:37:10;;;;;;;17.45;12.15;;;34.10;42.80;;;;;;5079150;28;20031;-74
2023/09/12 06:39:37;;;;;;;21.58;14.38;;;34.30;42.40;;;;;;5078674;28;20094;-67
2023/09/12 06:42:04;;;;;;;20.48;12.57;;;34.40;42.10;;;;;;5078623;28;20029;-73
2023/09/12 06:44:30;;;;;;;18.60;13.65;;;34.50;41.80;;;;;;5078784;28;20020;-66
2023/09/12 06:46:59;;;;;;;18.60;13.25;;;34.80;41.50;;;;;;5078391;28;20052;-65
2023/09/12 06:49:25;;;;;;;21.98;13.35;;;35.20;40.80;;;;;;5078322;28;20438;-66
2023/09/12 06:51:51;;;;;;;17.50;12.70;;;35.60;40.10;;;;;;5060703;28;20090;-70
2023/09/12 06:54:17;;;;;;;20.10;12.30;;;36.00;39.50;;;;;;5078856;28;20054;-67
2023/09/12 06:56:43;;;;;;;21.92;14.05;;;36.20;39.10;;;;;;5078255;28;20365;-66
2023/09/12 06:59:09;;;;;;;16.63;11.48;;;36.30;39.00;;;;;;5078192;28;20112;-68
2023/09/12 07:01:35;;;;;;;18.48;12.13;;;36.50;38.70;;;;;;5078180;28;20107;-67
2023/09/12 07:04:02;;;;;;;17.27;12.07;;;36.70;38.20;;;;;;5078165;28;20020;-69
2023/09/12 07:06:28;;;;;;;17.27;11.10;;;37.10;37.70;;;;;;5078005;28;20443;-66
2023/09/12 07:08:55;;;;;;;14.60;10.20;;;37.50;37.40;;;;;;5077770;28;20041;-71
2023/09/12 07:11:20;;;;;;;16.08;11.88;;;37.90;36.80;;;;;;5060734;28;20036;-68
2023/09/12 07:13:48;;;;;;;12.98;10.65;;;38.10;36.10;;;;;;5078215;28;20049;-70
2023/09/12 07:16:16;;;;;;;15.20;10.85;;;38.30;35.80;;;;;;5078534;28;20387;-67
2023/09/12 07:18:43;;;;;;;15.75;10.93;;;38.50;35.30;;;;;;5077926;28;20074;-69
2023/09/12 07:21:11;;;;;;;14.02;10.25;;;38.70;34.90;;;;;;5077873;28;20025;-70
2023/09/12 07:23:40;;;;;;;16.02;11.50;;;38.90;34.70;;;;;;5078043;28;20086;-69
2023/09/12 07:26:13;;;;;;;14.80;10.38;;;39.00;34.10;;;;;;5078239;28;20025;-70
2023/09/12 07:28:39;;;;;;;14.88;10.55;;;39.20;34.00;;;;;;5078264;28;20021;-67
2023/09/12 07:31:05;;;;;;;13.10;9.82;;;39.20;33.70;;;;;;5077733;28;20078;-68
2023/09/12 07:33:32;;;;;;;14.88;10.77;;;38.90;33.60;;;;;;5077920;28;20063;-71
2023/09/12 07:36:04;;;;;;;14.55;9.93;;;38.30;34.30;;;;;;5043399;28;20020;-67
2023/09/12 07:38:30;;;;;;;14.25;10.40;;;37.70;35.00;;;;;;5077557;28;20044;-67
2023/09/12 07:41:00;;;;;;;14.93;9.88;;;36.90;35.70;;;;;;5078074;28;20572;-69
2023/09/12 07:43:31;;;;;;;14.82;10.55;;;36.10;36.80;;;;;;5077367;28;20033;-71
2023/09/12 07:45:58;;;;;;;17.38;11.85;;;35.40;37.40;;;;;;5077869;28;20067;-68
2023/09/12 07:48:26;;;;;;;16.45;10.38;;;34.70;38.10;;;;;;5077211;28;20044;-67
2023/09/12 07:50:52;;;;;;;14.57;10.55;;;34.00;39.00;;;;;;5059940;28;20343;-68
2023/09/12 07:53:19;;;;;;;14.30;9.77;;;33.50;39.50;;;;;;5077299;28;20443;-67
2023/09/12 07:55:46;;;;;;;12.68;10.02;;;33.00;40.10;;;;;;5077794;28;20040;-68
2023/09/12 07:58:14;;;;;;;13.23;10.73;;;32.70;40.70;;;;;;5077139;28;20028;-67
2023/09/12 08:00:40;;;;;;;15.18;11.07;;;32.40;41.20;;;;;;5059444;28;20021;-69
2023/09/12 08:03:06;;;;;;;13.98;10.02;;;32.00;41.70;;;;;;5077097;28;20082;-69
2023/09/12 08:05:32;;;;;;;13.40;9.70;;;31.80;42.60;;;;;;5077144;28;20027;-68
2023/09/12 08:07:58;;;;;;;12.90;9.43;;;31.60;43.00;;;;;;5059980;28;20397;-68
2023/09/12 08:10:27;;;;;;;14.38;9.98;;;31.50;43.10;;;;;;5076796;28;20420;-68
2023/09/12 08:12:53;;;;;;;14.63;9.70;;;31.50;43.10;;;;;;5057228;28;20024;-66
2023/09/12 08:15:19;;;;;;;12.95;9.80;;;31.40;43.00;;;;;;5074797;28;20024;-66
2023/09/12 08:17:45;;;;;;;12.00;9.45;;;31.40;42.90;;;;;;5057177;28;20343;-67
2023/09/12 08:20:11;;;;;;;12.93;9.13;;;31.40;42.80;;;;;;5057018;28;20038;-68
2023/09/12 08:22:38;;;;;;;13.75;10.93;;;31.30;42.70;;;;;;5074929;28;20454;-68
2023/09/12 08:25:04;;;;;;;16.48;12.43;;;31.30;42.90;;;;;;5074936;28;20035;-66
2023/09/12 08:27:30;;;;;;;14.38;9.93;;;31.20;42.90;;;;;;5057444;28;20442;-66
2023/09/12 08:29:56;;;;;;;12.77;9.68;;;30.90;43.30;;;;;;5076816;28;20048;-67
2023/09/12 08:32:28;;;;;;;12.82;9.05;;;30.90;43.50;;;;;;5076453;28;20032;-66
2023/09/12 08:34:54;;;;;;;12.93;9.50;;;30.90;43.60;;;;;;5077006;28;20115;-68
2023/09/12 08:37:21;;;;;;;13.95;10.95;;;30.90;43.50;;;;;;5076256;28;20020;-67
2023/09/12 08:39:47;;;;;;;13.15;10.20;;;30.90;43.50;;;;;;5076382;28;20056;-68
2023/09/12 08:42:15;;;;;;;13.43;9.52;;;30.90;43.70;;;;;;5076327;28;20489;-68
2023/09/12 08:44:44;;;;;;;13.52;11.00;;;30.90;43.60;;;;;;5076221;28;20028;-68
2023/09/12 08:47:12;;;;;;;13.80;11.07;;;31.10;43.70;;;;;;5076018;28;20029;-67
2023/09/12 08:49:38;;;;;;;12.98;9.43;;;31.20;43.70;;;;;;5058536;28;20032;-67
2023/09/12 08:52:08;;;;;;;14.20;9.73;;;31.30;43.80;;;;;;5076359;28;20158;-66
2023/09/12 08:54:34;;;;;;;12.75;10.10;;;31.40;43.40;;;;;;5076069;28;20028;-67
2023/09/12 08:57:05;;;;;;;16.88;10.90;;;31.40;43.30;;;;;;5076420;28;20438;-67
2023/09/12 08:59:34;;;;;;;14.95;10.63;;;31.20;43.70;;;;;;5058338;28;20449;-67
2023/09/12 09:02:02;;;;;;;13.07;9.80;;;31.00;44.00;;;;;;5076172;28;20103;-68
2023/09/12 09:04:30;;;;;;;16.75;10.63;;;30.90;44.50;;;;;;5075841;28;20024;-67
2023/09/12 09:06:59;;;;;;;13.98;10.52;;;30.80;44.80;;;;;;5075696;28;20094;-66
2023/09/12 09:09:27;;;;;;;14.93;10.93;;;30.60;45.10;;;;;;5075412;28;20090;-65
2023/09/12 09:11:53;;;;;;;18.25;12.70;;;30.50;45.30;;;;;;5058398;28;20462;-66
2023/09/12 09:14:19;;;;;;;17.73;12.50;;;30.40;45.70;;;;;;5075908;28;20025;-67
2023/09/12 09:16:47;;;;;;;18.70;13.18;;;30.30;46.20;;;;;;5075658;28;20032;-66
2023/09/12 09:19:16;;;;;;;18.33;13.60;;;30.20;46.60;;;;;;5075553;28;20032;-67
2023/09/12 09:21:42;;;;;;;18.77;13.52;;;30.20;47.00;;;;;;5076231;28;20031;-66
2023/09/12 09:24:17;;;;;;;21.25;14.88;;;30.20;47.30;;;;;;5075503;28;20418;-66
2023/09/12 09:26:44;;;;;;;21.40;16.08;;;30.10;47.60;;;;;;5075361;28;20122;-69
2023/09/12 09:29:18;;;;;;;20.10;14.60;;;30.10;47.90;;;;;;5057734;28;20023;-67
2023/09/12 09:31:46;;;;;;;19.35;13.57;;;30.00;48.30;;;;;;5075682;28;20104;-65
2023/09/12 09:34:13;;;;;;;19.80;15.07;;;29.90;48.30;;;;;;5075882;28;20036;-65
2023/09/12 09:36:50;;;;;;;17.65;12.55;;;29.90;48.60;;;;;;5075858;28;20455;-67
2023/09/12 09:39:21;;;;;;;17.02;13.02;;;29.80;48.70;;;;;;5075198;28;20047;-67
2023/09/12 09:41:51;;;;;;;18.13;11.77;;;29.90;48.80;;;;;;5075701;28;20024;-66
2023/09/12 09:44:17;;;;;;;17.13;11.73;;;30.00;48.70;;;;;;5074637;28;20126;-67
2023/09/12 09:46:44;;;;;;;17.17;11.70;;;30.20;48.60;;;;;;5075154;28;20028;-68
2023/09/12 09:49:11;;;;;;;17.65;13.10;;;30.40;48.50;;;;;;5075158;28;20017;-66
2023/09/12 09:51:44;;;;;;;15.82;11.55;;;30.60;48.30;;;;;;5075412;28;20043;-68
2023/09/12 09:54:13;;;;;;;15.32;11.20;;;30.70;48.10;;;;;;5057463;28;20027;-67
2023/09/12 09:56:50;;;;;;;17.15;12.40;;;30.80;47.50;;;;;;5075184;28;20075;-66
2023/09/12 09:59:18;;;;;;;16.02;11.38;;;30.90;46.30;;;;;;5075391;28;20024;-69
2023/09/12 10:01:46;;;;;;;17.02;10.60;;;30.70;46.80;;;;;;5075121;28;20059;-69
2023/09/12 10:04:12;;;;;;;13.93;10.15;;;30.60;47.10;;;;;;5075128;28;20027;-68
2023/09/12 10:06:41;;;;;;;14.82;11.63;;;30.70;47.00;;;;;;5074937;28;20119;-67
2023/09/12 10:09:12;;;;;;;16.98;10.60;;;30.70;47.20;;;;;;5074592;28;20072;-66
2023/09/12 10:11:43;;;;;;;13.57;9.95;;;30.70;47.20;;;;;;5057412;28;20141;-66
2023/09/12 10:14:12;;;;;;;14.40;9.93;;;30.70;47.30;;;;;;5075440;28;20021;-67
2023/09/12 10:16:47;;;;;;;15.52;10.77;;;30.70;47.20;;;;;;5057544;28;20446;-65
2023/09/12 10:19:29;;;;;;;12.52;9.70;;;30.80;46.90;;;;;;5075702;28;20029;-68
2023/09/12 10:22:24;;;;;;;13.95;9.75;;;30.80;46.60;;;;;;5057315;28;20036;-67
2023/09/12 10:24:51;;;;;;;14.00;9.77;;;30.80;45.90;;;;;;5057229;28;20040;-70
2023/09/12 10:27:20;;;;;;;12.68;9.15;;;30.90;46.40;;;;;;5075019;28;20039;-66
2023/09/12 10:29:53;;;;;;;11.63;8.70;;;30.90;45.90;;;;;;5074730;28;20052;-67
2023/09/12 10:32:20;;;;;;;14.57;10.38;;;30.90;45.90;;;;;;5074868;28;20028;-70
2023/09/12 10:34:48;;;;;;;13.60;10.68;;;30.90;45.80;;;;;;5057256;28;20442;-68
2023/09/12 10:37:19;;;;;;;12.98;9.73;;;30.80;45.80;;;;;;5075276;28;20036;-68
2023/09/12 10:39:57;;;;;;;12.13;9.60;;;30.70;46.00;;;;;;5075242;28;20510;-71
2023/09/12 10:42:26;;;;;;;11.65;8.48;;;30.70;46.00;;;;;;5074774;28;20082;-69
2023/09/12 10:44:54;;;;;;;9.77;8.05;;;30.70;45.90;;;;;;5075005;28;20077;-68
2023/09/12 10:47:23;;;;;;;15.05;8.93;;;30.80;45.80;;;;;;5074791;28;20033;-67
2023/09/12 10:49:50;;;;;;;12.63;8.40;;;30.90;44.80;;;;;;5074547;28;20442;-66
2023/09/12 10:52:26;;;;;;;14.63;8.60;;;30.90;44.30;;;;;;5075237;28;20051;-67
2023/09/12 10:54:52;;;;;;;11.05;8.60;;;30.80;44.30;;;;;;5076696;28;20021;-70
2023/09/12 10:57:21;;;;;;;10.68;7.75;;;30.70;43.70;;;;;;5078501;28;20103;-66
2023/09/12 11:00:00;;;;;;;9.48;7.55;;;30.60;43.20;;;;;;5078291;28;20089;-65
2023/09/12 11:02:34;;;;;;;12.02;7.90;;;30.60;43.30;;;;;;5078467;28;20105;-67
2023/09/12 11:05:05;;;;;;;9.25;7.72;;;30.60;43.20;;;;;;5078464;28;20048;-66
2023/09/12 11:07:40;;;;;;;10.20;7.82;;;30.60;42.90;;;;;;5078284;28;20024;-66
2023/09/12 11:10:25;;;;;;;10.32;7.70;;;30.60;43.00;;;;;;5060239;28;20046;-68
2023/09/12 11:12:54;;;;;;;11.02;8.50;;;30.50;43.20;;;;;;5060405;28;20059;-66
2023/09/12 11:15:22;;;;;;;10.15;8.25;;;30.50;43.40;;;;;;5078282;28;20032;-67
2023/09/12 11:18:00;;;;;;;15.85;9.18;;;30.50;43.80;;;;;;5078131;28;20074;-67
2023/09/12 11:20:49;;;;;;;14.25;9.10;;;30.50;44.10;;;;;;5077867;28;20477;-68
2023/09/12 11:23:15;;;;;;;10.82;8.63;;;30.60;44.20;;;;;;5070008;28;20032;-68
2023/09/12 11:25:42;;;;;;;13.25;9.20;;;30.60;44.30;;;;;;5078024;28;20020;-66
2023/09/12 11:28:08;;;;;;;12.68;10.25;;;30.70;44.30;;;;;;5060158;28;20024;-67
2023/09/12 11:30:35;;;;;;;10.75;8.50;;;30.60;44.50;;;;;;5077742;28;20025;-68
2023/09/12 11:33:05;;;;;;;11.85;9.63;;;30.60;44.70;;;;;;5078001;28;20481;-67
2023/09/12 11:35:40;;;;;;;27.13;21.90;;;30.70;45.00;;;;;;5078004;28;20021;-66
2023/09/12 11:38:10;;;;;;;20.92;18.40;;;30.60;45.10;;;;;;5077476;28;20029;-68
2023/09/12 11:40:36;;;;;;;17.70;15.60;;;30.60;45.40;;;;;;5060270;28;20504;-67
2023/09/12 11:43:02;;;;;;;15.80;13.55;;;30.60;45.50;;;;;;5077534;28;20024;-68
2023/09/12 11:45:33;;;;;;;16.33;12.43;;;30.70;45.50;;;;;;5078007;28;20027;-67
2023/09/12 11:47:59;;;;;;;14.55;11.88;;;30.70;45.60;;;;;;5077307;28;20032;-68
2023/09/12 11:50:39;;;;;;;13.02;11.30;;;30.70;45.60;;;;;;5077314;28;20035;-68
2023/09/12 11:53:07;;;;;;;13.68;11.60;;;30.60;45.70;;;;;;5077351;28;20032;-67
2023/09/12 11:56:00;;;;;;;14.10;10.93;;;30.60;46.00;;;;;;5077600;28;20032;-68
2023/09/12 11:58:29;;;;;;;11.67;10.03;;;30.50;46.50;;;;;;5077509;28;20099;-68
2023/09/12 12:01:03;;;;;;;16.58;9.95;;;30.40;46.50;;;;;;5077722;28;20029;-68
2023/09/12 12:03:29;;;;;;;11.60;9.63;;;30.40;46.60;;;;;;5077626;28;20028;-67
2023/09/12 12:05:56;;;;;;;15.70;11.00;;;30.40;46.60;;;;;;5076049;28;20442;-67
2023/09/12 12:08:22;;;;;;;14.52;10.43;;;30.50;46.70;;;;;;5076768;28;20078;-66
2023/09/12 12:10:52;;;;;;;13.02;10.35;;;30.60;46.50;;;;;;5077048;28;20446;-67
2023/09/12 12:13:20;;;;;;;12.50;10.52;;;30.70;46.40;;;;;;5076942;28;20035;-67
2023/09/12 12:15:51;;;;;;;14.07;9.95;;;30.80;46.20;;;;;;5059599;28;20350;-66
2023/09/12 12:18:17;;;;;;;14.90;10.18;;;30.80;46.20;;;;;;5077132;28;20036;-68
2023/09/12 12:20:43;;;;;;;13.63;10.00;;;30.90;46.00;;;;;;5076804;28;20017;-68
2023/09/12 12:23:09;;;;;;;13.07;10.57;;;30.90;46.00;;;;;;5059949;28;20090;-67
2023/09/12 12:25:35;;;;;;;14.90;11.55;;;31.00;45.90;;;;;;5076742;28;20059;-67
2023/09/12 12:28:13;;;;;;;14.00;11.50;;;31.00;45.90;;;;;;5059213;28;20028;-68
2023/09/12 12:30:40;;;;;;;15.00;10.63;;;30.90;45.80;;;;;;5077231;28;20357;-66
2023/09/12 12:33:10;;;;;;;15.55;11.90;;;31.00;45.70;;;;;;5059300;28;20414;-67
2023/09/12 12:35:36;;;;;;;15.00;12.55;;;30.90;45.70;;;;;;5058930;28;20062;-69